Time;durP1;ratioP1;P1;durP2;ratioP2;P2;SDS_P1;SDS_P2;PMS_P1;PMS_P2;Temp;Humidity;BMP_temperature;BMP_pressure;BME280_temperature;BME280_humidity;BME280_pressure;Samples;Min_cycle;Max_cycle;Signal;HPM_P1;HPM_P2
2023/04/09 00:00:24;;;;;;;;;;;;;;;;;;6214186;23;19920;-84
2023/04/09 00:02:51;;;;;;;;;;;;;;;;;;6186740;23;20256;-84
2023/04/09 00:05:22;;;;;;;;;;;;;;;;;;6186936;23;19935;-84
2023/04/09 00:07:49;;;;;;;;;;;;;;;;;;6214670;23;20348;-84
2023/04/09 00:10:16;;;;;;;;;;;;;;;;;;6215019;23;19919;-84
2023/04/09 00:12:43;;;;;;;;;;;;;;;;;;6162676;23;19919;-84
2023/04/09 00:15:10;;;;;;;;;;;;;;;;;;6162544;23;20346;-84
2023/04/09 00:17:37;;;;;;;;;;;;;;;;;;6187154;23;20260;-85
2023/04/09 00:20:04;;;;;;;;;;;;;;;;;;6188253;23;19920;-84
2023/04/09 00:22:33;;;;;;;;;;;;;;;;;;6197706;23;19923;-84
2023/04/09 00:25:02;;;;;;;;;;;;;;;;;;6223801;23;19928;-85
2023/04/09 00:27:31;;;;;;;;;;;;;;;;;;6222816;23;19920;-84
2023/04/09 00:29:58;;;;;;;;;;;;;;;;;;6187671;23;19920;-84
2023/04/09 00:32:25;;;;;;;;;;;;;;;;;;6187016;23;19943;-85
2023/04/09 00:34:55;;;;;;;;;;;;;;;;;;6163542;23;19927;-84
2023/04/09 00:37:22;;;;;;;;;;;;;;;;;;6187490;23;20348;-84
2023/04/09 00:39:49;;;;;;;;;;;;;;;;;;6190476;23;19919;-85
2023/04/09 00:42:18;;;;;;;;;;;;;;;;;;6161965;23;19927;-84
2023/04/09 00:44:47;;;;;;;;;;;;;;;;;;6163289;23;20257;-84
2023/04/09 00:47:16;;;;;;;;;;;;;;;;;;6187770;23;19920;-85
2023/04/09 00:49:46;;;;;;;;;;;;;;;;;;6163090;23;19927;-85
2023/04/09 00:52:13;;;;;;;;;;;;;;;;;;6187193;23;19931;-84
2023/04/09 00:54:40;;;;;;;;;;;;;;;;;;6187012;23;19920;-84
2023/04/09 00:57:11;;;;;;;;;;;;;;;;;;6188014;23;20375;-85
2023/04/09 00:59:41;;;;;;;;;;;;;;;;;;6213287;23;20287;-84
2023/04/09 01:02:09;;;;;;;;;;;;;;;;;;6162724;23;19927;-84
2023/04/09 01:04:36;;;;;;;;;;;;;;;;;;6162299;23;20263;-84
2023/04/09 01:07:05;;;;;;;;;;;;;;;;;;6213707;23;19920;-84
2023/04/09 01:09:33;;;;;;;;;;;;;;;;;;6162841;23;20348;-84
2023/04/09 01:12:02;;;;;;;;;;;;;;;;;;6189365;23;19927;-85
2023/04/09 01:14:33;;;;;;;;;;;;;;;;;;6189194;23;19924;-84
2023/04/09 01:17:09;;;;;;;;;;;;;;;;;;6165301;23;19924;-85
2023/04/09 01:19:42;;;;;;;;;;;;;;;;;;6188280;23;19920;-85
2023/04/09 01:22:10;;;;;;;;;;;;;;;;;;6189582;23;19920;-85
2023/04/09 01:24:41;;;;;;;;;;;;;;;;;;6188848;23;19920;-85
2023/04/09 01:27:13;;;;;;;;;;;;;;;;;;6200294;23;20363;-85
2023/04/09 01:29:51;;;;;;;;;;;;;;;;;;6163497;23;20255;-85
2023/04/09 01:32:19;;;;;;;;;;;;;;;;;;6199347;23;19920;-85
2023/04/09 01:34:46;;;;;;;;;;;;;;;;;;6188938;23;19941;-85
2023/04/09 01:37:13;;;;;;;;;;;;;;;;;;6164711;23;19931;-85
2023/04/09 01:39:40;;;;;;;;;;;;;;;;;;6163958;23;20264;-85
2023/04/09 01:42:09;;;;;;;;;;;;;;;;;;6189250;23;19924;-85
2023/04/09 01:44:36;;;;;;;;;;;;;;;;;;6188715;23;20344;-85
2023/04/09 01:47:05;;;;;;;;;;;;;;;;;;6189741;23;19920;-85
2023/04/09 01:49:32;;;;;;;;;;;;;;;;;;6163097;23;19928;-85
2023/04/09 01:51:59;;;;;;;;;;;;;;;;;;6188728;23;20232;-85
2023/04/09 01:54:26;;;;;;;;;;;;;;;;;;6214817;23;20232;-85
2023/04/09 01:56:53;;;;;;;;;;;;;;;;;;6216088;23;19927;-85
2023/04/09 01:59:20;;;;;;;;;;;;;;;;;;6163467;23;19930;-85
2023/04/09 02:01:48;;;;;;;;;;;;;;;;;;6189090;23;19919;-85
2023/04/09 02:04:18;;;;;;;;;;;;;;;;;;6163396;23;20260;-85
2023/04/09 02:06:48;;;;;;;;;;;;;;;;;;6198622;23;19919;-85
2023/04/09 02:09:15;;;;;;;;;;;;;;;;;;6164263;23;20336;-85
2023/04/09 02:11:48;;;;;;;;;;;;;;;;;;6198513;23;19931;-85
2023/04/09 02:14:17;;;;;;;;;;;;;;;;;;6163725;23;19920;-85
2023/04/09 02:16:47;;;;;;;;;;;;;;;;;;6189220;23;20272;-85
2023/04/09 02:19:14;;;;;;;;;;;;;;;;;;6215639;23;19920;-85
2023/04/09 02:21:43;;;;;;;;;;;;;;;;;;6162928;23;20343;-85
2023/04/09 02:24:13;;;;;;;;;;;;;;;;;;6199902;23;19946;-85
2023/04/09 02:26:40;;;;;;;;;;;;;;;;;;6175806;23;19919;-85
2023/04/09 02:29:07;;;;;;;;;;;;;;;;;;6214663;23;19934;-85
2023/04/09 02:31:36;;;;;;;;;;;;;;;;;;6199067;23;19920;-85
2023/04/09 02:34:05;;;;;;;;;;;;;;;;;;6191073;23;19923;-85
2023/04/09 02:36:33;;;;;;;;;;;;;;;;;;6192313;23;19928;-85
2023/04/09 02:39:01;;;;;;;;;;;;;;;;;;6204479;23;19908;-86
2023/04/09 02:41:28;;;;;;;;;;;;;;;;;;6218006;23;19947;-86
2023/04/09 02:43:55;;;;;;;;;;;;;;;;;;6185486;23;19926;-85
2023/04/09 02:46:23;;;;;;;;;;;;;;;;;;6189102;23;19924;-85
2023/04/09 02:48:50;;;;;;;;;;;;;;;;;;6214730;23;20264;-85
2023/04/09 02:51:19;;;;;;;;;;;;;;;;;;6188934;23;19927;-85
2023/04/09 02:53:47;;;;;;;;;;;;;;;;;;6170506;23;19934;-85
2023/04/09 02:56:17;;;;;;;;;;;;;;;;;;6216971;23;19920;-85
2023/04/09 02:58:45;;;;;;;;;;;;;;;;;;6163308;23;19920;-85
2023/04/09 03:01:14;;;;;;;;;;;;;;;;;;6162564;23;19927;-85
2023/04/09 03:03:41;;;;;;;;;;;;;;;;;;6188671;23;19927;-85
2023/04/09 03:06:11;;;;;;;;;;;;;;;;;;6163256;23;20366;-85
2023/04/09 03:08:42;;;;;;;;;;;;;;;;;;6222318;23;19927;-85
2023/04/09 03:11:14;;;;;;;;;;;;;;;;;;6198470;23;19927;-85
2023/04/09 03:13:43;;;;;;;;;;;;;;;;;;6223852;23;20355;-85
2023/04/09 03:16:10;;;;;;;;;;;;;;;;;;6224484;23;19920;-85
2023/04/09 03:18:37;;;;;;;;;;;;;;;;;;6222227;23;19927;-85
2023/04/09 03:21:07;;;;;;;;;;;;;;;;;;6162673;23;19927;-85
2023/04/09 03:23:36;;;;;;;;;;;;;;;;;;6187941;23;19927;-84
2023/04/09 03:26:05;;;;;;;;;;;;;;;;;;6187555;23;19920;-85
2023/04/09 03:28:39;;;;;;;;;;;;;;;;;;6194980;23;19919;-85
2023/04/09 03:31:08;;;;;;;;;;;;;;;;;;6163116;23;19924;-85
2023/04/09 03:33:40;;;;;;;;;;;;;;;;;;6162631;23;19927;-85
2023/04/09 03:36:10;;;;;;;;;;;;;;;;;;6214484;23;19935;-85
2023/04/09 03:38:51;;;;;;;;;;;;;;;;;;6194480;23;19943;-85
2023/04/09 03:41:31;;;;;;;;;;;;;;;;;;6198498;23;19924;-85
2023/04/09 03:44:02;;;;;;;;;;;;;;;;;;6197750;23;19923;-85
2023/04/09 03:46:40;;;;;;;;;;;;;;;;;;6198206;23;19939;-85
2023/04/09 03:49:13;;;;;;;;;;;;;;;;;;6192418;23;19924;-85
2023/04/09 03:51:43;;;;;;;;;;;;;;;;;;6187908;23;19924;-85
2023/04/09 03:54:10;;;;;;;;;;;;;;;;;;6162020;23;20363;-85
2023/04/09 03:56:38;;;;;;;;;;;;;;;;;;6197751;23;19923;-85
2023/04/09 03:59:09;;;;;;;;;;;;;;;;;;6193195;23;20335;-85
2023/04/09 04:01:43;;;;;;;;;;;;;;;;;;6197608;23;20256;-85
2023/04/09 04:04:15;;;;;;;;;;;;;;;;;;6187930;23;19920;-85
2023/04/09 04:06:52;;;;;;;;;;;;;;;;;;6198750;23;19927;-85
2023/04/09 04:09:54;;;;;;;;;;;;;;;;;;6168988;23;19927;-85
2023/04/09 04:12:21;;;;;;;;;;;;;;;;;;6162278;23;20445;-85
2023/04/09 04:15:03;;;;;;;;;;;;;;;;;;6224448;23;19927;-85
2023/04/09 04:17:42;;;;;;;;;;;;;;;;;;6197459;23;19939;-85
2023/04/09 04:20:20;;;;;;;;;;;;;;;;;;6188489;23;19920;-85
2023/04/09 04:22:57;;;;;;;;;;;;;;;;;;6162356;23;20267;-85
2023/04/09 04:25:26;;;;;;;;;;;;;;;;;;6162714;23;19923;-85
2023/04/09 04:27:55;;;;;;;;;;;;;;;;;;6188649;23;19920;-85
2023/04/09 04:30:27;;;;;;;;;;;;;;;;;;6160590;23;19947;-85
2023/04/09 04:33:01;;;;;;;;;;;;;;;;;;6161522;23;19920;-86
2023/04/09 04:35:34;;;;;;;;;;;;;;;;;;6162588;23;19920;-86
2023/04/09 04:38:04;;;;;;;;;;;;;;;;;;6187607;23;19927;-86
2023/04/09 04:40:36;;;;;;;;;;;;;;;;;;6188621;23;19931;-86
2023/04/09 04:43:04;;;;;;;;;;;;;;;;;;6161532;23;19927;-87
2023/04/09 04:45:31;;;;;;;;;;;;;;;;;;6187273;23;20331;-87
2023/04/09 04:48:05;;;;;;;;;;;;;;;;;;6197814;23;20335;-87
2023/04/09 04:50:32;;;;;;;;;;;;;;;;;;6187388;23;19926;-87
2023/04/09 04:53:06;;;;;;;;;;;;;;;;;;6186851;23;20348;-85
2023/04/09 04:55:41;;;;;;;;;;;;;;;;;;6162497;23;19920;-87
2023/04/09 04:58:12;;;;;;;;;;;;;;;;;;6162016;23;19920;-88
2023/04/09 05:00:46;;;;;;;;;;;;;;;;;;6186037;23;19924;-88
2023/04/09 05:03:15;;;;;;;;;;;;;;;;;;6187500;23;20363;-87
2023/04/09 05:05:55;;;;;;;;;;;;;;;;;;6162263;23;19920;-87
2023/04/09 05:08:24;;;;;;;;;;;;;;;;;;6162990;23;20367;-87
2023/04/09 05:10:54;;;;;;;;;;;;;;;;;;6214526;23;19920;-88
2023/04/09 05:13:25;;;;;;;;;;;;;;;;;;6188042;23;19919;-88
2023/04/09 05:15:53;;;;;;;;;;;;;;;;;;6162428;23;19935;-87
2023/04/09 05:18:21;;;;;;;;;;;;;;;;;;6161708;23;19920;-87
2023/04/09 05:20:50;;;;;;;;;;;;;;;;;;6187295;23;20370;-87
2023/04/09 05:23:18;;;;;;;;;;;;;;;;;;6163325;23;19926;-88
2023/04/09 05:25:48;;;;;;;;;;;;;;;;;;6186049;23;20363;-88
2023/04/09 05:28:23;;;;;;;;;;;;;;;;;;6196318;23;19927;-88
2023/04/09 05:31:03;;;;;;;;;;;;;;;;;;6197976;23;19942;-89
2023/04/09 05:33:37;;;;;;;;;;;;;;;;;;6187004;23;19931;-87
2023/04/09 05:36:05;;;;;;;;;;;;;;;;;;6196496;23;19920;-87
2023/04/09 05:38:32;;;;;;;;;;;;;;;;;;6187267;23;19931;-86
2023/04/09 05:40:59;;;;;;;;;;;;;;;;;;6163086;23;20127;-88
2023/04/09 05:43:26;;;;;;;;;;;;;;;;;;6162786;23;19920;-88
2023/04/09 05:45:56;;;;;;;;;;;;;;;;;;6161858;23;19924;-87
2023/04/09 05:48:26;;;;;;;;;;;;;;;;;;6186813;23;19927;-87
2023/04/09 05:50:55;;;;;;;;;;;;;;;;;;6162982;23;20362;-87
2023/04/09 05:53:25;;;;;;;;;;;;;;;;;;6196684;23;20248;-87
2023/04/09 05:55:52;;;;;;;;;;;;;;;;;;6187832;23;19919;-87
2023/04/09 05:58:23;;;;;;;;;;;;;;;;;;6162030;23;19919;-87
2023/04/09 06:00:55;;;;;;;;;;;;;;;;;;6188740;23;19920;-87
2023/04/09 06:03:24;;;;;;;;;;;;;;;;;;6198374;23;19920;-87
2023/04/09 06:05:51;;;;;;;;;;;;;;;;;;6198643;23;19920;-88
2023/04/09 06:08:19;;;;;;;;;;;;;;;;;;6197758;23;19924;-87
2023/04/09 06:10:49;;;;;;;;;;;;;;;;;;6188492;23;19920;-88
2023/04/09 06:13:16;;;;;;;;;;;;;;;;;;6163764;23;19935;-87
2023/04/09 06:15:46;;;;;;;;;;;;;;;;;;6188918;23;19927;-86
2023/04/09 06:18:16;;;;;;;;;;;;;;;;;;6187290;23;19920;-86
2023/04/09 06:20:43;;;;;;;;;;;;;;;;;;6213946;23;19919;-87
2023/04/09 06:23:12;;;;;;;;;;;;;;;;;;6198459;23;20335;-87
2023/04/09 06:25:43;;;;;;;;;;;;;;;;;;6188011;23;19920;-88
2023/04/09 06:28:10;;;;;;;;;;;;;;;;;;6214355;23;19920;-87
2023/04/09 06:30:37;;;;;;;;;;;;;;;;;;6214184;23;19927;-87
2023/04/09 06:33:06;;;;;;;;;;;;;;;;;;6187632;23;19920;-87
2023/04/09 06:35:36;;;;;;;;;;;;;;;;;;6188442;23;19920;-88
2023/04/09 06:38:04;;;;;;;;;;;;;;;;;;6215021;23;19920;-88
2023/04/09 06:40:31;;;;;;;;;;;;;;;;;;6188550;23;19919;-88
2023/04/09 06:42:59;;;;;;;;;;;;;;;;;;6224426;23;19930;-88
2023/04/09 06:45:39;;;;;;;;;;;;;;;;;;6196669;23;19930;-88
2023/04/09 06:48:06;;;;;;;;;;;;;;;;;;6215101;23;20267;-87
2023/04/09 06:50:38;;;;;;;;;;;;;;;;;;6188106;23;19923;-87
2023/04/09 06:53:07;;;;;;;;;;;;;;;;;;6188260;23;20353;-87
2023/04/09 06:55:34;;;;;;;;;;;;;;;;;;6187127;23;19920;-87
2023/04/09 06:58:06;;;;;;;;;;;;;;;;;;6215384;23;19924;-88
2023/04/09 07:00:33;;;;;;;;;;;;;;;;;;6187943;23;20256;-87
2023/04/09 07:03:00;;;;;;;;;;;;;;;;;;6187839;23;19931;-85
2023/04/09 07:05:30;;;;;;;;;;;;;;;;;;6212891;23;20237;-88
2023/04/09 07:08:01;;;;;;;;;;;;;;;;;;6224614;23;20335;-87
2023/04/09 07:10:28;;;;;;;;;;;;;;;;;;6216337;23;19958;-87
2023/04/09 07:12:58;;;;;;;;;;;;;;;;;;6188516;23;19940;-88
2023/04/09 07:15:29;;;;;;;;;;;;;;;;;;6214437;23;19928;-87
2023/04/09 07:17:56;;;;;;;;;;;;;;;;;;6187112;23;19947;-87
2023/04/09 07:20:23;;;;;;;;;;;;;;;;;;6187623;23;19919;-88
2023/04/09 07:22:50;;;;;;;;;;;;;;;;;;6187358;23;19920;-88
2023/04/09 07:25:17;;;;;;;;;;;;;;;;;;6187740;23;19930;-87
2023/04/09 07:27:47;;;;;;;;;;;;;;;;;;6163011;23;19927;-87
2023/04/09 07:30:14;;;;;;;;;;;;;;;;;;6214686;23;19920;-88
2023/04/09 07:32:42;;;;;;;;;;;;;;;;;;6188027;23;20301;-87
2023/04/09 07:35:10;;;;;;;;;;;;;;;;;;6197997;23;19920;-87
2023/04/09 07:37:37;;;;;;;;;;;;;;;;;;6163513;23;19920;-88
2023/04/09 07:40:04;;;;;;;;;;;;;;;;;;6191840;23;19943;-87
2023/04/09 07:42:32;;;;;;;;;;;;;;;;;;6224491;23;20563;-88
2023/04/09 07:45:02;;;;;;;;;;;;;;;;;;6224408;23;19920;-87
2023/04/09 07:47:29;;;;;;;;;;;;;;;;;;6163326;23;19919;-88
2023/04/09 07:49:57;;;;;;;;;;;;;;;;;;6214306;23;19927;-88
2023/04/09 07:52:24;;;;;;;;;;;;;;;;;;6187358;23;19926;-87
2023/04/09 07:54:51;;;;;;;;;;;;;;;;;;6162148;23;19927;-87
2023/04/09 07:57:21;;;;;;;;;;;;;;;;;;6214527;23;19920;-88
2023/04/09 07:59:48;;;;;;;;;;;;;;;;;;6188551;23;19926;-88
2023/04/09 08:02:15;;;;;;;;;;;;;;;;;;6197866;23;19920;-88
2023/04/09 08:04:42;;;;;;;;;;;;;;;;;;6214696;23;19927;-86
2023/04/09 08:07:15;;;;;;;;;;;;;;;;;;6188943;23;19920;-87
2023/04/09 08:09:42;;;;;;;;;;;;;;;;;;6162701;23;19920;-92
2023/04/09 08:12:09;;;;;;;;;;;;;;;;;;6187302;23;19943;-89
2023/04/09 08:14:40;;;;;;;;;;;;;;;;;;6224887;23;19924;-87
2023/04/09 08:17:11;;;;;;;;;;;;;;;;;;6186360;23;19926;-87
2023/04/09 08:19:38;;;;;;;;;;;;;;;;;;6188307;23;19920;-88
2023/04/09 08:22:05;;;;;;;;;;;;;;;;;;6188428;23;19926;-87
2023/04/09 08:24:37;;;;;;;;;;;;;;;;;;6198730;23;20268;-87
2023/04/09 08:27:04;;;;;;;;;;;;;;;;;;6187634;23;19920;-88
2023/04/09 08:29:34;;;;;;;;;;;;;;;;;;6216624;23;19920;-87
2023/04/09 08:32:03;;;;;;;;;;;;;;;;;;6216904;23;19927;-87
2023/04/09 08:34:30;;;;;;;;;;;;;;;;;;6163063;23;19926;-87
2023/04/09 08:37:00;;;;;;;;;;;;;;;;;;6214629;23;19931;-87
2023/04/09 08:39:27;;;;;;;;;;;;;;;;;;6214897;23;20333;-87
2023/04/09 08:41:58;;;;;;;;;;;;;;;;;;6189298;23;20374;-88
2023/04/09 08:44:25;;;;;;;;;;;;;;;;;;6187814;23;19920;-88
2023/04/09 08:46:53;;;;;;;;;;;;;;;;;;6163241;23;19931;-87
2023/04/09 08:49:22;;;;;;;;;;;;;;;;;;6193982;23;19920;-88
2023/04/09 08:51:52;;;;;;;;;;;;;;;;;;6188826;23;19964;-88
2023/04/09 08:54:19;;;;;;;;;;;;;;;;;;6214710;23;19935;-88
2023/04/09 08:56:48;;;;;;;;;;;;;;;;;;6188543;23;19924;-88
2023/04/09 08:59:19;;;;;;;;;;;;;;;;;;6215018;23;19927;-87
2023/04/09 09:02:06;;;;;;;;;;;;;;;;;;6225525;23;19919;-88
2023/04/09 09:04:37;;;;;;;;;;;;;;;;;;6198716;23;19919;-88
2023/04/09 09:07:05;;;;;;;;;;;;;;;;;;6214714;23;19926;-88
2023/04/09 09:09:32;;;;;;;;;;;;;;;;;;6215173;23;20340;-88
2023/04/09 09:12:00;;;;;;;;;;;;;;;;;;6215976;23;20264;-88
2023/04/09 09:14:28;;;;;;;;;;;;;;;;;;6191360;23;19920;-88
2023/04/09 09:17:06;;;;;;;;;;;;;;;;;;6189450;23;19920;-88
2023/04/09 09:19:36;;;;;;;;;;;;;;;;;;6191889;23;19931;-87
2023/04/09 09:22:06;;;;;;;;;;;;;;;;;;6228118;23;20229;-87
2023/04/09 09:24:33;;;;;;;;;;;;;;;;;;6214301;23;19964;-87
2023/04/09 09:27:01;;;;;;;;;;;;;;;;;;6186831;23;20343;-87
2023/04/09 09:29:30;;;;;;;;;;;;;;;;;;6214445;23;19920;-89
2023/04/09 09:31:59;;;;;;;;;;;;;;;;;;6198999;23;19927;-88
2023/04/09 09:34:26;;;;;;;;;;;;;;;;;;6164850;23;20336;-89
2023/04/09 09:36:53;;;;;;;;;;;;;;;;;;6225341;23;19927;-89
2023/04/09 09:39:23;;;;;;;;;;;;;;;;;;6189368;23;19943;-89
2023/04/09 09:41:50;;;;;;;;;;;;;;;;;;6164158;23;19924;-89
2023/04/09 09:44:31;;;;;;;;;;;;;;;;;;6189430;23;19927;-89
2023/04/09 09:46:58;;;;;;;;;;;;;;;;;;6225622;23;19920;-89
2023/04/09 09:49:25;;;;;;;;;;;;;;;;;;6194904;23;19927;-87
2023/04/09 09:51:54;;;;;;;;;;;;;;;;;;6215745;23;19927;-88
2023/04/09 09:54:24;;;;;;;;;;;;;;;;;;6164589;23;19927;-88
2023/04/09 09:56:51;;;;;;;;;;;;;;;;;;6164136;23;20362;-88
2023/04/09 09:59:20;;;;;;;;;;;;;;;;;;6188883;23;19928;-88
2023/04/09 10:01:49;;;;;;;;;;;;;;;;;;6215381;23;20358;-88
2023/04/09 10:04:16;;;;;;;;;;;;;;;;;;6226356;23;20328;-88
2023/04/09 10:06:46;;;;;;;;;;;;;;;;;;6199757;23;19919;-88
2023/04/09 10:09:13;;;;;;;;;;;;;;;;;;6221753;23;19920;-87
2023/04/09 10:11:41;;;;;;;;;;;;;;;;;;6164779;23;19931;-88
2023/04/09 10:14:08;;;;;;;;;;;;;;;;;;6163985;23;19927;-88
2023/04/09 10:16:35;;;;;;;;;;;;;;;;;;6188922;23;20192;-88
2023/04/09 10:19:03;;;;;;;;;;;;;;;;;;6189131;23;19924;-88
2023/04/09 10:21:33;;;;;;;;;;;;;;;;;;6188511;23;19924;-88
2023/04/09 10:24:04;;;;;;;;;;;;;;;;;;6188914;23;19923;-88
2023/04/09 10:26:34;;;;;;;;;;;;;;;;;;6188870;23;19919;-88
2023/04/09 10:29:10;;;;;;;;;;;;;;;;;;6187047;22;19927;-91
2023/04/09 10:32:01;;;;;;;;;;;;;;;;;;6164507;23;19928;-91
2023/04/09 10:34:30;;;;;;;;;;;;;;;;;;6121975;23;20109;-91
2023/04/09 10:36:58;;;;;;;;;;;;;;;;;;6155842;23;19920;-92
2023/04/09 10:39:26;;;;;;;;;;;;;;;;;;6129460;23;19927;-91
2023/04/09 10:41:53;;;;;;;;;;;;;;;;;;6153086;23;19920;-92
2023/04/09 10:44:21;;;;;;;;;;;;;;;;;;6154951;23;19943;-92
2023/04/09 10:46:48;;;;;;;;;;;;;;;;;;6129291;23;20261;-92
2023/04/09 10:49:16;;;;;;;;;;;;;;;;;;6155842;23;19927;-92
2023/04/09 10:51:49;;;;;;;;;;;;;;;;;;6154559;23;19921;-91
2023/04/09 11:19:12;;;;;;;;;;;;;;;;;;6215398;23;19920;-90
2023/04/09 11:21:44;;;;;;;;;;;;;;;;;;6188345;23;20363;-91
2023/04/09 11:24:12;;;;;;;;;;;;;;;;;;6221562;23;20344;-91
2023/04/09 11:26:39;;;;;;;;;;;;;;;;;;6214557;23;19927;-93
2023/04/09 11:29:07;;;;;;;;;;;;;;;;;;6215151;23;19931;-91
2023/04/09 11:31:34;;;;;;;;;;;;;;;;;;6214957;23;19927;-91
2023/04/09 11:34:01;;;;;;;;;;;;;;;;;;6187753;23;19919;-91
2023/04/09 11:36:30;;;;;;;;;;;;;;;;;;6163311;23;19927;-92
2023/04/09 11:38:58;;;;;;;;;;;;;;;;;;6188337;23;20355;-91
2023/04/09 11:41:34;;;;;;;;;;;;;;;;;;6198088;23;19919;-92
2023/04/09 11:44:02;;;;;;;;;;;;;;;;;;6187980;23;19927;-92
2023/04/09 11:46:29;;;;;;;;;;;;;;;;;;6214695;23;19920;-91
2023/04/09 11:48:56;;;;;;;;;;;;;;;;;;6188117;23;19920;-91
2023/04/09 11:51:25;;;;;;;;;;;;;;;;;;6163113;23;19920;-91
2023/04/09 11:53:53;;;;;;;;;;;;;;;;;;6224303;23;19945;-90
2023/04/09 11:56:21;;;;;;;;;;;;;;;;;;6214404;23;19927;-92
2023/04/09 11:58:48;;;;;;;;;;;;;;;;;;6188445;23;19927;-91
2023/04/09 12:01:15;;;;;;;;;;;;;;;;;;6163455;23;19920;-92
2023/04/09 12:03:42;;;;;;;;;;;;;;;;;;6214738;23;19967;-92
2023/04/09 12:06:10;;;;;;;;;;;;;;;;;;6224223;23;19926;-92
2023/04/09 12:08:37;;;;;;;;;;;;;;;;;;6163291;23;20255;-92
2023/04/09 12:11:10;;;;;;;;;;;;;;;;;;6187832;23;19920;-91
2023/04/09 12:13:41;;;;;;;;;;;;;;;;;;6187566;23;19920;-92
2023/04/09 12:16:09;;;;;;;;;;;;;;;;;;6223901;23;19920;-91
2023/04/09 12:18:36;;;;;;;;;;;;;;;;;;6188356;23;19924;-91
2023/04/09 12:45:51;;;;;;;;;;;;;;;;;;6214420;23;19920;-92
2023/04/09 13:45:57;;;;;;;;;;;;;;;;;;6216802;23;19919;-90
2023/04/09 13:48:24;;;;;;;;;;;;;;;;;;6189659;23;19939;-91
2023/04/09 13:50:51;;;;;;;;;;;;;;;;;;6190026;23;19924;-91
2023/04/09 13:53:20;;;;;;;;;;;;;;;;;;6215665;23;19927;-91
2023/04/09 13:55:47;;;;;;;;;;;;;;;;;;6215242;23;19931;-91
2023/04/09 13:58:15;;;;;;;;;;;;;;;;;;6189425;23;20336;-91
2023/04/09 14:00:42;;;;;;;;;;;;;;;;;;6216076;23;20248;-91
2023/04/09 14:03:11;;;;;;;;;;;;;;;;;;6216688;23;20387;-91
2023/04/09 14:05:39;;;;;;;;;;;;;;;;;;6215970;23;19920;-91
2023/04/09 14:08:06;;;;;;;;;;;;;;;;;;6189767;23;19927;-92
2023/04/09 14:10:33;;;;;;;;;;;;;;;;;;6215641;23;20344;-91
2023/04/09 14:13:01;;;;;;;;;;;;;;;;;;6215590;23;19924;-91
2023/04/09 14:15:28;;;;;;;;;;;;;;;;;;6215962;23;20233;-91
2023/04/09 14:17:55;;;;;;;;;;;;;;;;;;6216288;23;19919;-92
2023/04/09 14:20:24;;;;;;;;;;;;;;;;;;6215713;23;20316;-91
2023/04/09 14:44:51;;;;;;;;;;;;;;;;;;6184475;23;19947;-91
2023/04/09 14:47:18;;;;;;;;;;;;;;;;;;6169906;23;19921;-91
2023/04/09 14:49:45;;;;;;;;;;;;;;;;;;6186605;23;19927;-91
2023/04/09 14:52:12;;;;;;;;;;;;;;;;;;6196188;23;19920;-92
2023/04/09 14:54:39;;;;;;;;;;;;;;;;;;6195465;23;19924;-91
2023/04/09 14:57:07;;;;;;;;;;;;;;;;;;6185504;23;20344;-91
2023/04/09 14:59:34;;;;;;;;;;;;;;;;;;6186122;23;19920;-92
2023/04/09 15:02:03;;;;;;;;;;;;;;;;;;6186080;23;19920;-91
2023/04/09 15:04:30;;;;;;;;;;;;;;;;;;6159863;23;19924;-91
2023/04/09 15:06:57;;;;;;;;;;;;;;;;;;6159462;23;19920;-92
2023/04/09 15:09:25;;;;;;;;;;;;;;;;;;6185628;23;19924;-91
2023/04/09 15:11:52;;;;;;;;;;;;;;;;;;6195860;23;19920;-91
2023/04/09 15:14:20;;;;;;;;;;;;;;;;;;6134776;23;19931;-92
2023/04/09 15:16:47;;;;;;;;;;;;;;;;;;6159059;23;19924;-92
2023/04/09 15:19:15;;;;;;;;;;;;;;;;;;6159836;23;19927;-92
2023/04/09 15:21:42;;;;;;;;;;;;;;;;;;6186047;23;19920;-91
2023/04/09 15:24:09;;;;;;;;;;;;;;;;;;6195129;23;20258;-92
2023/04/09 15:26:37;;;;;;;;;;;;;;;;;;6185125;23;19921;-92
2023/04/09 15:29:05;;;;;;;;;;;;;;;;;;6159090;23;20270;-92
2023/04/09 15:31:33;;;;;;;;;;;;;;;;;;6185544;23;19920;-93
2023/04/09 15:34:00;;;;;;;;;;;;;;;;;;6159731;23;19947;-92
2023/04/09 15:36:30;;;;;;;;;;;;;;;;;;6194723;23;20298;-92
2023/04/09 15:39:03;;;;;;;;;;;;;;;;;;6158483;23;19920;-93
2023/04/09 15:41:32;;;;;;;;;;;;;;;;;;6184685;23;19924;-91
2023/04/09 15:43:59;;;;;;;;;;;;;;;;;;6133818;23;19920;-87
2023/04/09 15:46:28;;;;;;;;;;;;;;;;;;6184005;23;20288;-93
2023/04/09 15:48:55;;;;;;;;;;;;;;;;;;6132805;23;19927;-93
2023/04/09 15:51:22;;;;;;;;;;;;;;;;;;6194430;23;19920;-92
2023/04/09 15:53:50;;;;;;;;;;;;;;;;;;6158498;23;19920;-91
2023/04/09 15:56:20;;;;;;;;;;;;;;;;;;6157494;23;19920;-91
2023/04/09 15:58:47;;;;;;;;;;;;;;;;;;6158707;23;20324;-91
2023/04/09 16:01:14;;;;;;;;;;;;;;;;;;6157861;23;19920;-92
2023/04/09 16:03:41;;;;;;;;;;;;;;;;;;6193703;23;19927;-92
2023/04/09 16:06:09;;;;;;;;;;;;;;;;;;6158095;23;20344;-91
2023/04/09 16:08:36;;;;;;;;;;;;;;;;;;6168176;23;19927;-91
2023/04/09 16:11:05;;;;;;;;;;;;;;;;;;6159156;23;19920;-91
2023/04/09 16:13:34;;;;;;;;;;;;;;;;;;6157207;23;19920;-91
2023/04/09 16:16:01;;;;;;;;;;;;;;;;;;6133803;23;19920;-92
2023/04/09 16:18:28;;;;;;;;;;;;;;;;;;6185982;23;19920;-91
2023/04/09 16:20:56;;;;;;;;;;;;;;;;;;6185098;23;19927;-91
2023/04/09 16:23:24;;;;;;;;;;;;;;;;;;6158277;23;19920;-92
2023/04/09 16:25:51;;;;;;;;;;;;;;;;;;6157997;23;20341;-92
2023/04/09 16:28:21;;;;;;;;;;;;;;;;;;6134752;23;20356;-93
2023/04/09 16:30:49;;;;;;;;;;;;;;;;;;6183548;23;19943;-82
2023/04/09 16:33:16;;;;;;;;;;;;;;;;;;6133006;23;19943;-82
2023/04/09 16:35:43;;;;;;;;;;;;;;;;;;6157996;23;20329;-84
2023/04/09 16:38:10;;;;;;;;;;;;;;;;;;6157800;23;20358;-85
2023/04/09 16:40:37;;;;;;;;;;;;;;;;;;6183849;23;19932;-84
2023/04/09 16:43:04;;;;;;;;;;;;;;;;;;6157028;23;19920;-85
2023/04/09 16:45:33;;;;;;;;;;;;;;;;;;6184091;23;19924;-85
2023/04/09 16:48:00;;;;;;;;;;;;;;;;;;6158150;23;19927;-85
2023/04/09 16:50:27;;;;;;;;;;;;;;;;;;6157063;23;19920;-85
2023/04/09 16:52:54;;;;;;;;;;;;;;;;;;6167591;23;19927;-85
2023/04/09 16:55:21;;;;;;;;;;;;;;;;;;6159178;23;20252;-85
2023/04/09 16:57:50;;;;;;;;;;;;;;;;;;6157570;23;19921;-84
2023/04/09 17:00:19;;;;;;;;;;;;;;;;;;6133352;23;19924;-84
2023/04/09 17:02:48;;;;;;;;;;;;;;;;;;6157250;23;19927;-84
2023/04/09 17:05:17;;;;;;;;;;;;;;;;;;6194155;23;19924;-84
2023/04/09 17:07:44;;;;;;;;;;;;;;;;;;6157125;23;20108;-85
2023/04/09 17:10:16;;;;;;;;;;;;;;;;;;6189027;23;20270;-84
2023/04/09 17:12:43;;;;;;;;;;;;;;;;;;6168094;23;19920;-88
2023/04/09 17:15:11;;;;;;;;;;;;;;;;;;6194559;23;20249;-84
2023/04/09 17:17:38;;;;;;;;;;;;;;;;;;6157024;23;19947;-85
2023/04/09 17:20:07;;;;;;;;;;;;;;;;;;6182633;23;19920;-85
2023/04/09 17:22:38;;;;;;;;;;;;;;;;;;6194114;23;19921;-85
2023/04/09 17:25:08;;;;;;;;;;;;;;;;;;6133122;23;19920;-85
2023/04/09 17:27:38;;;;;;;;;;;;;;;;;;6193631;23;19924;-85
2023/04/09 17:30:06;;;;;;;;;;;;;;;;;;6155564;23;19931;-84
2023/04/09 17:32:33;;;;;;;;;;;;;;;;;;6157685;23;19932;-84
2023/04/09 17:35:02;;;;;;;;;;;;;;;;;;6157079;23;19921;-84
2023/04/09 17:37:31;;;;;;;;;;;;;;;;;;6155520;23;19927;-84
2023/04/09 17:39:59;;;;;;;;;;;;;;;;;;6128065;23;20263;-84
2023/04/09 17:42:29;;;;;;;;;;;;;;;;;;6157142;23;19920;-84
2023/04/09 17:44:59;;;;;;;;;;;;;;;;;;6183072;23;19921;-84
2023/04/09 17:47:26;;;;;;;;;;;;;;;;;;6192819;23;19928;-84
2023/04/09 17:49:53;;;;;;;;;;;;;;;;;;6183869;23;19932;-85
2023/04/09 17:52:22;;;;;;;;;;;;;;;;;;6159534;23;19921;-85
2023/04/09 17:54:52;;;;;;;;;;;;;;;;;;6160066;23;19927;-84
2023/04/09 17:57:20;;;;;;;;;;;;;;;;;;6157657;23;20264;-84
2023/04/09 17:59:47;;;;;;;;;;;;;;;;;;6134501;23;19920;-84
2023/04/09 18:02:14;;;;;;;;;;;;;;;;;;6135192;23;19928;-84
2023/04/09 18:04:44;;;;;;;;;;;;;;;;;;6159027;23;19920;-85
2023/04/09 18:07:11;;;;;;;;;;;;;;;;;;6195552;23;19920;-85
2023/04/09 18:09:39;;;;;;;;;;;;;;;;;;6159051;23;20368;-84
2023/04/09 18:12:08;;;;;;;;;;;;;;;;;;6195243;23;19926;-84
2023/04/09 18:14:39;;;;;;;;;;;;;;;;;;6158947;23;20340;-84
2023/04/09 18:17:06;;;;;;;;;;;;;;;;;;6158792;23;19924;-85
2023/04/09 18:19:33;;;;;;;;;;;;;;;;;;6159671;23;19920;-84
2023/04/09 18:22:03;;;;;;;;;;;;;;;;;;6184303;23;20292;-84
2023/04/09 18:24:32;;;;;;;;;;;;;;;;;;6159565;23;20352;-84
2023/04/09 18:27:01;;;;;;;;;;;;;;;;;;6184680;23;19924;-84
2023/04/09 18:29:28;;;;;;;;;;;;;;;;;;6159615;23;19921;-85
2023/04/09 18:31:56;;;;;;;;;;;;;;;;;;6184703;23;19921;-85
2023/04/09 18:34:28;;;;;;;;;;;;;;;;;;6168329;23;19924;-84
2023/04/09 18:36:55;;;;;;;;;;;;;;;;;;6158553;23;19928;-85
2023/04/09 18:39:26;;;;;;;;;;;;;;;;;;6135391;23;19921;-85
2023/04/09 18:41:53;;;;;;;;;;;;;;;;;;6184368;23;19928;-84
2023/04/09 18:44:20;;;;;;;;;;;;;;;;;;6156968;23;19928;-85
2023/04/09 18:46:50;;;;;;;;;;;;;;;;;;6183824;23;19927;-84
2023/04/09 18:49:20;;;;;;;;;;;;;;;;;;6184748;23;19947;-85
2023/04/09 18:51:47;;;;;;;;;;;;;;;;;;6132897;23;20252;-84
2023/04/09 18:54:14;;;;;;;;;;;;;;;;;;6182800;23;19944;-85
2023/04/09 18:56:41;;;;;;;;;;;;;;;;;;6184609;23;19928;-85
2023/04/09 18:59:08;;;;;;;;;;;;;;;;;;6157577;23;19924;-85
2023/04/09 19:01:37;;;;;;;;;;;;;;;;;;6184254;23;19920;-85
2023/04/09 19:04:04;;;;;;;;;;;;;;;;;;6182601;23;19927;-84
2023/04/09 19:06:34;;;;;;;;;;;;;;;;;;6184989;23;19920;-84